MMSDKSAN

Guest
Details From MMSD - Los Cabos Intl
To KSAN - San Diego Intl
Flight Number -
Tags Generated
Created
Modified
Stats Distance 698 nm / 1,293 km
Max Altitude 0 ft / 0 m
Waypoints 4
Social Downloads 1
Likes 0
Share VATSIM

Download

Looking for another format? Having issues loading an existing format? Contact us
Advertisement - Login to hide

Notes

Generated

Route

MMSD ORCAS RUMGE KSAN

ID Type Via Altitude Latitude Longitude Leg Dist Tot Dist Heading (true) Name
O MMSD APT - 0 ft / 0 m 23.16528˚ -109.72264˚ - 0 nm - -
ORCAS FIX - 0 ft / 0 m 24.40560˚ -110.65230˚ 90 nm 90 nm 326° / 325° -
RUMGE FIX - 0 ft / 0 m 32.56503˚ -117.05059˚ 594 nm 685 nm 327° / 324° -
O KSAN APT - 0 ft / 0 m 32.73712˚ -117.20435˚ 12 nm 698 nm 323° / 323° -

Altitude Profile

Advertisement - Login to hide

Weather


0- 5 10 15 20 25 30 35+ Temperature / ° C

Clouds and Precipitation
Forecast for 2017-12-18 06:00 UTC. Updated 3 minutes ago

Ground ~20,000 ft ~40,000 ft Winds

MMSD

Details ICAO MMSD (SJD)
Name LOS CABOS INTL
Region Mexico
Timezone America/Mazatlan (UTC-7.0)
Stats Elevation 374 ft / 114 m (AMSL)
Location 23.151850° -109.721044°
Runways 1
Magnetic Variation 8.325° E

METAR

Not found

TAF

TAF TAF MMSD 171717Z 1718/1818 22010G20KT P6SM BKN040 FM180200 22006KT P6SM SCT040 BKN200 BECMG 1817/1818 22010KT

Decode

Departure Runways

ID Width Length Bearing (true) Bearing (mag) Surface Threshold Offset Overrun Length
16 148 ft / 45 m 9,857 ft / 3,004 m 173.75° 165.42° Asphalt 0 ft / 0 m 215 ft / 66 m
34 148 ft / 45 m 9,857 ft / 3,004 m 353.75° 345.42° Asphalt 0 ft / 0 m 200 ft / 61 m

KSAN

Details ICAO KSAN (SAN)
Name San Diego Intl
Region United States
Timezone America/Los_Angeles (UTC-8.0)
Stats Elevation 17 ft / 5 m (AMSL)
Location 32.733556° -117.189658°
Runways 1
Magnetic Variation 11.524° E

METAR

KSAN 180451Z 11004KT 10SM CLR 16/01 A3003 RMK AO2 SLP167 T01560011

Decode

TAF

TAF AMD KSAN 180303Z 1803/1906 VRB06KT P6SM SKC FM182000 28009KT P6SM SKC FM190100 VRB05KT P6SM SKC

Decode

Destination Runways

ID Width Length Bearing (true) Bearing (mag) Surface Threshold Offset Overrun Length
09 200 ft / 61 m 9,387 ft / 2,861 m 106.07° 94.55° Asphalt 699 ft / 213 m 269 ft / 82 m
27 200 ft / 61 m 9,387 ft / 2,861 m 286.08° 274.56° Asphalt 1,811 ft / 552 m 0 ft / 0 m

Approach Navaids

Runway Type Ident Frequency Range Bearing (true) Bearing (mag) Slope Elevation
09 Localiser ISAN 111.55 MHz 18 nm / 33 km 106.08° 94.55° - 17 ft / 5 m (AMSL)
09 Glidescope ISAN 111.55 MHz 10 nm / 19 km 106.08° 94.55° 3.22° 13 ft / 4 m (AMSL)
09 DME ISAN 111.55 MHz 18 nm / 33 km - - - 29 ft / 9 m (AMSL)
27 Localiser IUBR 110.90 MHz 18 nm / 33 km 286.07° 274.54° - 13 ft / 4 m (AMSL)
27 DME IUBR 110.90 MHz 18 nm / 33 km - - - 26 ft / 8 m (AMSL)

Popular Alternatives